Pagina principale
METAR-TAF:

METAR-TAF

Aeroporti :

Aeroporto di Genova-Sestri

Genova, Italia

latitudine: 44-25N, longitudine: 008-51E, altezza: 2 m

Osservazione

Il bollettino è stato emesso 26 minuti fa, alle 13:20 UTC
Vento 10 kt da nord, variando fra nord-ovest e est/nord-est
Temperature 9°C
Umidità 40%
Pressione 998 hPa
Visibilità 10 km o più
nessuna nube inferiore a 1500 m e nessun cumulonembo

METAR: LIMJ 241320Z 01010KT 320V060 CAVOK 09/M04 Q0998

Ora: 14:46 (13:46 UTC)

Previsione

Il bollettino è stato emesso 2 ore e 46 minuti fa, alle 11:00 UTC
Previsione valida dal 24 alle 12 UTC al 25 alle 12 UTC
Vento 12 kt da nord
Visibilità 10 km o più
nessuna nube inferiore a 1500 m e nessun cumulonembo
Temporaneamente
dal 24 alle 12 UTC al 24 alle 22 UTC
Vento 18 kt da nord con raffiche fino a 32 kt

TAF: LIMJ 241100Z 2412/2512 01012KT CAVOK TEMPO 2412/2422 01018G32KT

Osservazioni e previsioni meteorologiche di più di 4000 aeroporti (messaggi METAR e TAF).

Le stazioni disponibili sono rappresentate dai dischi gialli e rossi sulla carta.

Puntare il mouse per vedere il nome della stazione.

Clicca sopra per visualizzare le osservazioni e previsioni meteorologiche.

Per cambiare la mappa : fare clic sui pulsanti verdi con una croce nera per ingrandire, il pulsante verde con un trattino per diminuire, o sulla freccia verde per le mappe adiacenti.


METAR-TAF: